sensor_id;sensor_type;location;lat;lon;timestamp;temperature;humidity
19999;DHT22;10160;50.926;4.374;2023-06-22T00:01:18;22.10;99.90
19999;DHT22;10160;50.926;4.374;2023-06-22T00:03:44;22.10;99.90
19999;DHT22;10160;50.926;4.374;2023-06-22T00:06:10;22.10;99.90
19999;DHT22;10160;50.926;4.374;2023-06-22T00:08:36;22.20;99.90
19999;DHT22;10160;50.926;4.374;2023-06-22T00:11:01;22.00;99.90
19999;DHT22;10160;50.926;4.374;2023-06-22T00:13:27;22.00;99.90
19999;DHT22;10160;50.926;4.374;2023-06-22T00:15:55;22.00;99.90
19999;DHT22;10160;50.926;4.374;2023-06-22T00:18:21;22.10;99.90
19999;DHT22;10160;50.926;4.374;2023-06-22T00:20:46;22.10;99.90
19999;DHT22;10160;50.926;4.374;2023-06-22T00:23:15;22.10;99.90
19999;DHT22;10160;50.926;4.374;2023-06-22T00:25:41;22.00;99.90
19999;DHT22;10160;50.926;4.374;2023-06-22T00:28:07;22.10;99.90
19999;DHT22;10160;50.926;4.374;2023-06-22T00:30:35;21.70;99.90
19999;DHT22;10160;50.926;4.374;2023-06-22T00:33:01;21.80;99.90
19999;DHT22;10160;50.926;4.374;2023-06-22T00:35:27;21.90;99.90
19999;DHT22;10160;50.926;4.374;2023-06-22T00:37:59;22.00;99.90
19999;DHT22;10160;50.926;4.374;2023-06-22T00:40:29;21.90;99.90
19999;DHT22;10160;50.926;4.374;2023-06-22T00:42:55;21.90;99.90
19999;DHT22;10160;50.926;4.374;2023-06-22T00:45:22;21.90;99.90
19999;DHT22;10160;50.926;4.374;2023-06-22T00:47:52;22.00;99.90
19999;DHT22;10160;50.926;4.374;2023-06-22T00:50:20;21.90;99.90
19999;DHT22;10160;50.926;4.374;2023-06-22T00:52:57;22.10;99.90
19999;DHT22;10160;50.926;4.374;2023-06-22T00:55:24;22.10;99.90
19999;DHT22;10160;50.926;4.374;2023-06-22T00:57:51;22.00;99.90
19999;DHT22;10160;50.926;4.374;2023-06-22T01:00:22;22.00;99.90
19999;DHT22;10160;50.926;4.374;2023-06-22T01:02:47;22.00;99.90
19999;DHT22;10160;50.926;4.374;2023-06-22T01:05:18;22.00;99.90
19999;DHT22;10160;50.926;4.374;2023-06-22T01:10:38;21.90;99.90
19999;DHT22;10160;50.926;4.374;2023-06-22T01:13:10;21.90;99.90
19999;DHT22;10160;50.926;4.374;2023-06-22T01:15:53;21.90;99.90
19999;DHT22;10160;50.926;4.374;2023-06-22T01:18:22;21.90;99.90
19999;DHT22;10160;50.926;4.374;2023-06-22T01:20:54;21.80;99.90
19999;DHT22;10160;50.926;4.374;2023-06-22T01:23:26;21.90;99.90
19999;DHT22;10160;50.926;4.374;2023-06-22T01:28:46;21.90;99.90
19999;DHT22;10160;50.926;4.374;2023-06-22T01:31:15;21.90;99.90
19999;DHT22;10160;50.926;4.374;2023-06-22T01:33:44;22.00;99.90
19999;DHT22;10160;50.926;4.374;2023-06-22T01:36:13;21.80;99.90
19999;DHT22;10160;50.926;4.374;2023-06-22T01:38:40;21.60;99.90
19999;DHT22;10160;50.926;4.374;2023-06-22T01:41:07;21.40;99.90
19999;DHT22;10160;50.926;4.374;2023-06-22T01:43:33;21.40;99.90
19999;DHT22;10160;50.926;4.374;2023-06-22T01:46:01;21.50;99.90
19999;DHT22;10160;50.926;4.374;2023-06-22T01:48:27;21.60;99.90
19999;DHT22;10160;50.926;4.374;2023-06-22T01:50:54;21.60;99.90
19999;DHT22;10160;50.926;4.374;2023-06-22T01:53:21;21.60;99.90
19999;DHT22;10160;50.926;4.374;2023-06-22T01:55:50;21.40;99.90
19999;DHT22;10160;50.926;4.374;2023-06-22T01:58:16;21.30;99.90
19999;DHT22;10160;50.926;4.374;2023-06-22T02:01:23;21.20;99.90
19999;DHT22;10160;50.926;4.374;2023-06-22T02:03:57;21.30;99.90
19999;DHT22;10160;50.926;4.374;2023-06-22T02:06:34;21.40;99.90
19999;DHT22;10160;50.926;4.374;2023-06-22T02:09:12;21.40;99.90
19999;DHT22;10160;50.926;4.374;2023-06-22T02:11:41;21.40;99.90
19999;DHT22;10160;50.926;4.374;2023-06-22T02:14:11;21.30;99.90
19999;DHT22;10160;50.926;4.374;2023-06-22T02:16:40;21.30;99.90
19999;DHT22;10160;50.926;4.374;2023-06-22T02:19:06;21.30;99.90
19999;DHT22;10160;50.926;4.374;2023-06-22T02:21:34;21.10;99.90
19999;DHT22;10160;50.926;4.374;2023-06-22T02:24:03;21.20;99.90
19999;DHT22;10160;50.926;4.374;2023-06-22T02:26:30;21.20;99.90
19999;DHT22;10160;50.926;4.374;2023-06-22T02:28:56;21.10;99.90
19999;DHT22;10160;50.926;4.374;2023-06-22T02:31:22;21.00;99.90
19999;DHT22;10160;50.926;4.374;2023-06-22T02:33:47;21.00;99.90
19999;DHT22;10160;50.926;4.374;2023-06-22T02:36:14;20.90;99.90
19999;DHT22;10160;50.926;4.374;2023-06-22T02:38:43;20.70;99.90
19999;DHT22;10160;50.926;4.374;2023-06-22T02:41:14;20.50;99.90
19999;DHT22;10160;50.926;4.374;2023-06-22T02:43:46;20.70;99.90
19999;DHT22;10160;50.926;4.374;2023-06-22T02:46:13;20.80;99.90
19999;DHT22;10160;50.926;4.374;2023-06-22T02:48:41;20.90;99.90
19999;DHT22;10160;50.926;4.374;2023-06-22T02:51:07;20.80;99.90
19999;DHT22;10160;50.926;4.374;2023-06-22T02:53:33;20.80;99.90
19999;DHT22;10160;50.926;4.374;2023-06-22T02:56:00;20.90;99.90
19999;DHT22;10160;50.926;4.374;2023-06-22T02:58:31;20.90;99.90
19999;DHT22;10160;50.926;4.374;2023-06-22T03:01:05;20.80;99.90
19999;DHT22;10160;50.926;4.374;2023-06-22T03:03:33;20.80;99.90
19999;DHT22;10160;50.926;4.374;2023-06-22T03:05:59;20.70;99.90
19999;DHT22;10160;50.926;4.374;2023-06-22T03:08:26;20.70;99.90
19999;DHT22;10160;50.926;4.374;2023-06-22T03:10:52;20.90;99.90
19999;DHT22;10160;50.926;4.374;2023-06-22T03:13:17;20.80;99.90
19999;DHT22;10160;50.926;4.374;2023-06-22T03:15:43;20.80;99.90
19999;DHT22;10160;50.926;4.374;2023-06-22T03:18:08;20.90;99.90
19999;DHT22;10160;50.926;4.374;2023-06-22T03:20:34;20.90;99.90
19999;DHT22;10160;50.926;4.374;2023-06-22T03:23:00;20.80;99.90
19999;DHT22;10160;50.926;4.374;2023-06-22T03:25:25;20.70;99.90
19999;DHT22;10160;50.926;4.374;2023-06-22T03:27:51;20.50;99.90
19999;DHT22;10160;50.926;4.374;2023-06-22T03:30:17;20.50;99.90
19999;DHT22;10160;50.926;4.374;2023-06-22T03:32:42;20.70;99.90
19999;DHT22;10160;50.926;4.374;2023-06-22T03:35:09;20.80;99.90
19999;DHT22;10160;50.926;4.374;2023-06-22T03:37:39;20.80;99.90
19999;DHT22;10160;50.926;4.374;2023-06-22T03:40:05;20.70;99.90
19999;DHT22;10160;50.926;4.374;2023-06-22T03:42:31;20.50;99.90
19999;DHT22;10160;50.926;4.374;2023-06-22T03:44:57;20.40;99.90
19999;DHT22;10160;50.926;4.374;2023-06-22T03:47:23;20.20;99.90
19999;DHT22;10160;50.926;4.374;2023-06-22T03:49:48;20.30;99.90
19999;DHT22;10160;50.926;4.374;2023-06-22T03:52:14;20.30;99.90
19999;DHT22;10160;50.926;4.374;2023-06-22T03:54:40;20.40;99.90
19999;DHT22;10160;50.926;4.374;2023-06-22T03:57:06;20.50;99.90
19999;DHT22;10160;50.926;4.374;2023-06-22T03:59:31;20.60;99.90
19999;DHT22;10160;50.926;4.374;2023-06-22T04:01:57;20.70;99.90
19999;DHT22;10160;50.926;4.374;2023-06-22T04:04:26;20.80;99.90
19999;DHT22;10160;50.926;4.374;2023-06-22T04:06:51;20.90;99.90
19999;DHT22;10160;50.926;4.374;2023-06-22T04:09:17;21.00;99.90
19999;DHT22;10160;50.926;4.374;2023-06-22T04:11:43;21.00;99.90
19999;DHT22;10160;50.926;4.374;2023-06-22T04:14:08;21.10;99.90
19999;DHT22;10160;50.926;4.374;2023-06-22T04:16:34;21.10;99.90
19999;DHT22;10160;50.926;4.374;2023-06-22T04:19:00;21.00;99.90
19999;DHT22;10160;50.926;4.374;2023-06-22T04:21:25;21.10;99.90
19999;DHT22;10160;50.926;4.374;2023-06-22T04:23:51;21.10;99.90
19999;DHT22;10160;50.926;4.374;2023-06-22T04:26:16;21.20;99.90
19999;DHT22;10160;50.926;4.374;2023-06-22T04:28:42;21.20;99.90
19999;DHT22;10160;50.926;4.374;2023-06-22T04:31:08;21.20;99.90
19999;DHT22;10160;50.926;4.374;2023-06-22T04:33:33;21.20;99.90
19999;DHT22;10160;50.926;4.374;2023-06-22T04:35:59;21.20;99.90
19999;DHT22;10160;50.926;4.374;2023-06-22T04:38:27;21.30;99.90
19999;DHT22;10160;50.926;4.374;2023-06-22T04:40:53;21.20;99.90
19999;DHT22;10160;50.926;4.374;2023-06-22T04:43:19;21.10;99.90
19999;DHT22;10160;50.926;4.374;2023-06-22T04:45:45;20.90;99.90
19999;DHT22;10160;50.926;4.374;2023-06-22T04:48:11;21.10;99.90
19999;DHT22;10160;50.926;4.374;2023-06-22T04:50:44;21.20;99.90
19999;DHT22;10160;50.926;4.374;2023-06-22T04:53:10;21.10;99.90
19999;DHT22;10160;50.926;4.374;2023-06-22T04:55:38;21.30;99.90
19999;DHT22;10160;50.926;4.374;2023-06-22T04:58:11;21.40;99.90
19999;DHT22;10160;50.926;4.374;2023-06-22T05:00:38;21.50;99.90
19999;DHT22;10160;50.926;4.374;2023-06-22T05:03:04;21.70;99.90
19999;DHT22;10160;50.926;4.374;2023-06-22T05:05:32;21.70;99.90
19999;DHT22;10160;50.926;4.374;2023-06-22T05:07:57;21.60;99.90
19999;DHT22;10160;50.926;4.374;2023-06-22T05:10:26;21.80;99.90
19999;DHT22;10160;50.926;4.374;2023-06-22T05:12:52;21.80;99.90
19999;DHT22;10160;50.926;4.374;2023-06-22T05:15:17;21.80;99.90
19999;DHT22;10160;50.926;4.374;2023-06-22T05:17:45;21.90;99.90
19999;DHT22;10160;50.926;4.374;2023-06-22T05:20:12;21.70;99.90
19999;DHT22;10160;50.926;4.374;2023-06-22T05:22:38;21.60;99.90
19999;DHT22;10160;50.926;4.374;2023-06-22T05:25:09;21.60;99.90
19999;DHT22;10160;50.926;4.374;2023-06-22T05:27:35;21.70;99.90
19999;DHT22;10160;50.926;4.374;2023-06-22T05:30:06;21.80;99.90
19999;DHT22;10160;50.926;4.374;2023-06-22T05:32:32;21.90;99.90
19999;DHT22;10160;50.926;4.374;2023-06-22T05:34:59;22.10;99.90
19999;DHT22;10160;50.926;4.374;2023-06-22T05:37:24;22.20;99.90
19999;DHT22;10160;50.926;4.374;2023-06-22T05:39:50;22.10;99.90
19999;DHT22;10160;50.926;4.374;2023-06-22T05:42:21;22.10;99.90
19999;DHT22;10160;50.926;4.374;2023-06-22T05:44:47;22.10;99.90
19999;DHT22;10160;50.926;4.374;2023-06-22T05:47:13;22.00;99.90
19999;DHT22;10160;50.926;4.374;2023-06-22T05:49:39;22.00;99.90
19999;DHT22;10160;50.926;4.374;2023-06-22T05:52:05;21.90;99.90
19999;DHT22;10160;50.926;4.374;2023-06-22T05:54:31;21.80;99.90
19999;DHT22;10160;50.926;4.374;2023-06-22T05:56:56;21.80;99.90
19999;DHT22;10160;50.926;4.374;2023-06-22T05:59:22;21.80;99.90
19999;DHT22;10160;50.926;4.374;2023-06-22T06:01:48;21.90;99.90
19999;DHT22;10160;50.926;4.374;2023-06-22T06:04:17;21.80;99.90
19999;DHT22;10160;50.926;4.374;2023-06-22T06:06:43;21.80;99.90
19999;DHT22;10160;50.926;4.374;2023-06-22T06:09:09;21.90;99.90
19999;DHT22;10160;50.926;4.374;2023-06-22T06:11:37;21.90;99.90
19999;DHT22;10160;50.926;4.374;2023-06-22T06:14:03;21.90;99.90
19999;DHT22;10160;50.926;4.374;2023-06-22T06:16:28;21.90;99.90
19999;DHT22;10160;50.926;4.374;2023-06-22T06:18:54;21.90;99.90
19999;DHT22;10160;50.926;4.374;2023-06-22T06:21:21;21.80;99.90
19999;DHT22;10160;50.926;4.374;2023-06-22T06:23:47;21.80;99.90
19999;DHT22;10160;50.926;4.374;2023-06-22T06:26:12;21.90;99.90
19999;DHT22;10160;50.926;4.374;2023-06-22T06:28:38;21.90;99.90
19999;DHT22;10160;50.926;4.374;2023-06-22T06:31:04;22.00;99.90
19999;DHT22;10160;50.926;4.374;2023-06-22T06:33:32;22.00;99.90
19999;DHT22;10160;50.926;4.374;2023-06-22T06:35:58;22.10;99.90
19999;DHT22;10160;50.926;4.374;2023-06-22T06:38:27;22.10;99.90
19999;DHT22;10160;50.926;4.374;2023-06-22T06:40:53;22.20;99.90
19999;DHT22;10160;50.926;4.374;2023-06-22T06:43:18;22.20;99.90
19999;DHT22;10160;50.926;4.374;2023-06-22T06:45:44;22.20;99.90
19999;DHT22;10160;50.926;4.374;2023-06-22T06:48:09;22.30;99.90
19999;DHT22;10160;50.926;4.374;2023-06-22T06:50:35;22.40;99.90
19999;DHT22;10160;50.926;4.374;2023-06-22T06:53:01;22.50;99.90
19999;DHT22;10160;50.926;4.374;2023-06-22T06:55:26;22.50;99.90
19999;DHT22;10160;50.926;4.374;2023-06-22T06:57:54;22.70;99.90
19999;DHT22;10160;50.926;4.374;2023-06-22T07:00:20;22.60;99.90
19999;DHT22;10160;50.926;4.374;2023-06-22T07:02:46;22.80;99.90
19999;DHT22;10160;50.926;4.374;2023-06-22T07:05:13;22.80;99.90
19999;DHT22;10160;50.926;4.374;2023-06-22T07:07:39;22.90;99.90
19999;DHT22;10160;50.926;4.374;2023-06-22T07:10:09;23.00;99.90
19999;DHT22;10160;50.926;4.374;2023-06-22T07:12:37;23.00;99.90
19999;DHT22;10160;50.926;4.374;2023-06-22T07:15:07;23.20;99.90
19999;DHT22;10160;50.926;4.374;2023-06-22T07:17:34;23.20;99.90
19999;DHT22;10160;50.926;4.374;2023-06-22T07:20:00;23.30;99.90
19999;DHT22;10160;50.926;4.374;2023-06-22T07:22:26;23.30;99.90
19999;DHT22;10160;50.926;4.374;2023-06-22T07:24:52;23.20;99.90
19999;DHT22;10160;50.926;4.374;2023-06-22T07:27:18;23.30;99.90
19999;DHT22;10160;50.926;4.374;2023-06-22T07:29:46;23.40;99.90
19999;DHT22;10160;50.926;4.374;2023-06-22T07:32:12;23.40;99.90
19999;DHT22;10160;50.926;4.374;2023-06-22T07:34:38;22.90;99.90
19999;DHT22;10160;50.926;4.374;2023-06-22T07:37:04;22.80;99.90
19999;DHT22;10160;50.926;4.374;2023-06-22T07:39:30;22.90;99.90
19999;DHT22;10160;50.926;4.374;2023-06-22T07:41:55;22.30;99.90
19999;DHT22;10160;50.926;4.374;2023-06-22T07:44:21;22.60;99.90
19999;DHT22;10160;50.926;4.374;2023-06-22T07:46:47;22.80;99.90
19999;DHT22;10160;50.926;4.374;2023-06-22T07:49:13;22.80;99.90
19999;DHT22;10160;50.926;4.374;2023-06-22T07:51:42;22.90;99.90
19999;DHT22;10160;50.926;4.374;2023-06-22T07:54:08;23.00;99.90
19999;DHT22;10160;50.926;4.374;2023-06-22T07:56:34;23.00;99.90
19999;DHT22;10160;50.926;4.374;2023-06-22T07:58:59;23.10;99.90
19999;DHT22;10160;50.926;4.374;2023-06-22T08:01:27;23.20;99.90
19999;DHT22;10160;50.926;4.374;2023-06-22T08:03:52;23.40;99.90
19999;DHT22;10160;50.926;4.374;2023-06-22T08:06:18;23.30;99.90
19999;DHT22;10160;50.926;4.374;2023-06-22T08:08:44;23.40;99.90
19999;DHT22;10160;50.926;4.374;2023-06-22T08:11:13;23.40;99.90
19999;DHT22;10160;50.926;4.374;2023-06-22T08:13:38;23.40;99.90
19999;DHT22;10160;50.926;4.374;2023-06-22T08:16:04;23.40;99.90
19999;DHT22;10160;50.926;4.374;2023-06-22T08:18:30;23.40;99.90
19999;DHT22;10160;50.926;4.374;2023-06-22T08:20:56;23.30;99.90
19999;DHT22;10160;50.926;4.374;2023-06-22T08:23:21;23.30;99.90
19999;DHT22;10160;50.926;4.374;2023-06-22T08:25:47;23.00;99.90
19999;DHT22;10160;50.926;4.374;2023-06-22T08:28:15;22.90;99.90
19999;DHT22;10160;50.926;4.374;2023-06-22T08:30:41;22.60;99.90
19999;DHT22;10160;50.926;4.374;2023-06-22T08:33:09;22.60;99.90
19999;DHT22;10160;50.926;4.374;2023-06-22T08:35:35;22.70;99.90
19999;DHT22;10160;50.926;4.374;2023-06-22T08:38:00;22.90;99.90
19999;DHT22;10160;50.926;4.374;2023-06-22T08:40:27;23.00;99.90
19999;DHT22;10160;50.926;4.374;2023-06-22T08:42:54;23.00;99.90
19999;DHT22;10160;50.926;4.374;2023-06-22T08:45:20;23.00;99.90
19999;DHT22;10160;50.926;4.374;2023-06-22T08:47:46;23.00;99.90
19999;DHT22;10160;50.926;4.374;2023-06-22T08:50:12;23.00;99.90
19999;DHT22;10160;50.926;4.374;2023-06-22T08:52:39;23.00;99.90
19999;DHT22;10160;50.926;4.374;2023-06-22T08:55:07;22.90;99.90
19999;DHT22;10160;50.926;4.374;2023-06-22T08:57:34;22.90;99.90
19999;DHT22;10160;50.926;4.374;2023-06-22T08:59:59;22.80;99.90
19999;DHT22;10160;50.926;4.374;2023-06-22T09:02:26;22.80;99.90
19999;DHT22;10160;50.926;4.374;2023-06-22T09:04:56;22.90;99.90
19999;DHT22;10160;50.926;4.374;2023-06-22T09:07:22;22.90;99.90
19999;DHT22;10160;50.926;4.374;2023-06-22T09:09:49;22.90;99.90
19999;DHT22;10160;50.926;4.374;2023-06-22T09:12:15;23.00;99.90
19999;DHT22;10160;50.926;4.374;2023-06-22T09:14:41;23.00;99.90
19999;DHT22;10160;50.926;4.374;2023-06-22T09:17:07;22.90;99.90
19999;DHT22;10160;50.926;4.374;2023-06-22T09:19:32;22.70;99.90
19999;DHT22;10160;50.926;4.374;2023-06-22T09:21:58;22.70;99.90
19999;DHT22;10160;50.926;4.374;2023-06-22T09:24:25;22.70;99.90
19999;DHT22;10160;50.926;4.374;2023-06-22T09:26:51;22.80;99.90
19999;DHT22;10160;50.926;4.374;2023-06-22T09:29:16;22.80;99.90
19999;DHT22;10160;50.926;4.374;2023-06-22T09:31:42;22.90;99.90
19999;DHT22;10160;50.926;4.374;2023-06-22T09:34:08;22.70;99.90
19999;DHT22;10160;50.926;4.374;2023-06-22T09:36:33;22.60;99.90
19999;DHT22;10160;50.926;4.374;2023-06-22T09:39:00;22.50;99.90
19999;DHT22;10160;50.926;4.374;2023-06-22T09:41:31;22.20;99.90
19999;DHT22;10160;50.926;4.374;2023-06-22T09:43:56;22.20;99.90
19999;DHT22;10160;50.926;4.374;2023-06-22T09:46:22;22.30;99.90
19999;DHT22;10160;50.926;4.374;2023-06-22T09:48:50;22.40;99.90
19999;DHT22;10160;50.926;4.374;2023-06-22T09:51:16;22.30;99.90
19999;DHT22;10160;50.926;4.374;2023-06-22T09:53:42;22.20;99.90
19999;DHT22;10160;50.926;4.374;2023-06-22T09:56:08;21.90;99.90
19999;DHT22;10160;50.926;4.374;2023-06-22T09:58:44;21.70;99.90
19999;DHT22;10160;50.926;4.374;2023-06-22T10:01:10;21.80;99.90
19999;DHT22;10160;50.926;4.374;2023-06-22T10:03:37;21.60;99.90
19999;DHT22;10160;50.926;4.374;2023-06-22T10:06:03;21.40;99.90
19999;DHT22;10160;50.926;4.374;2023-06-22T10:08:28;21.60;99.90
19999;DHT22;10160;50.926;4.374;2023-06-22T10:10:54;21.30;99.90
19999;DHT22;10160;50.926;4.374;2023-06-22T10:13:23;21.40;99.90
19999;DHT22;10160;50.926;4.374;2023-06-22T10:15:48;21.40;99.90
19999;DHT22;10160;50.926;4.374;2023-06-22T10:18:18;21.60;99.90
19999;DHT22;10160;50.926;4.374;2023-06-22T10:20:50;21.70;99.90
19999;DHT22;10160;50.926;4.374;2023-06-22T10:23:22;21.30;99.90
19999;DHT22;10160;50.926;4.374;2023-06-22T10:25:48;20.90;99.90
19999;DHT22;10160;50.926;4.374;2023-06-22T10:28:14;20.90;99.90
19999;DHT22;10160;50.926;4.374;2023-06-22T10:30:40;21.00;99.90
19999;DHT22;10160;50.926;4.374;2023-06-22T10:33:07;21.10;99.90
19999;DHT22;10160;50.926;4.374;2023-06-22T10:35:33;21.10;99.90
19999;DHT22;10160;50.926;4.374;2023-06-22T10:37:59;21.10;99.90
19999;DHT22;10160;50.926;4.374;2023-06-22T10:40:25;21.10;99.90
19999;DHT22;10160;50.926;4.374;2023-06-22T10:42:51;21.20;99.90
19999;DHT22;10160;50.926;4.374;2023-06-22T10:45:16;21.10;99.90
19999;DHT22;10160;50.926;4.374;2023-06-22T10:47:42;21.20;99.90
19999;DHT22;10160;50.926;4.374;2023-06-22T10:50:08;21.10;99.90
19999;DHT22;10160;50.926;4.374;2023-06-22T10:52:34;20.90;99.90
19999;DHT22;10160;50.926;4.374;2023-06-22T10:55:00;20.90;99.90
19999;DHT22;10160;50.926;4.374;2023-06-22T10:57:26;21.00;99.90
19999;DHT22;10160;50.926;4.374;2023-06-22T10:59:51;21.10;99.90
19999;DHT22;10160;50.926;4.374;2023-06-22T11:02:18;21.10;99.90
19999;DHT22;10160;50.926;4.374;2023-06-22T11:04:44;21.10;99.90
19999;DHT22;10160;50.926;4.374;2023-06-22T11:07:10;21.20;99.90
19999;DHT22;10160;50.926;4.374;2023-06-22T11:09:38;21.20;99.90
19999;DHT22;10160;50.926;4.374;2023-06-22T11:12:05;21.20;99.90
19999;DHT22;10160;50.926;4.374;2023-06-22T11:14:31;21.20;99.90
19999;DHT22;10160;50.926;4.374;2023-06-22T11:16:59;21.20;99.90
19999;DHT22;10160;50.926;4.374;2023-06-22T11:19:24;21.20;99.90
19999;DHT22;10160;50.926;4.374;2023-06-22T11:21:50;21.10;99.90
19999;DHT22;10160;50.926;4.374;2023-06-22T11:24:16;21.00;99.90
19999;DHT22;10160;50.926;4.374;2023-06-22T11:26:42;21.00;99.90
19999;DHT22;10160;50.926;4.374;2023-06-22T11:29:08;21.00;99.90
19999;DHT22;10160;50.926;4.374;2023-06-22T11:31:36;21.00;99.90
19999;DHT22;10160;50.926;4.374;2023-06-22T11:34:06;20.90;99.90
19999;DHT22;10160;50.926;4.374;2023-06-22T11:36:31;20.50;99.90
19999;DHT22;10160;50.926;4.374;2023-06-22T11:39:01;20.50;99.90
19999;DHT22;10160;50.926;4.374;2023-06-22T11:41:26;20.60;99.90
19999;DHT22;10160;50.926;4.374;2023-06-22T11:43:52;20.80;99.90
19999;DHT22;10160;50.926;4.374;2023-06-22T11:46:18;20.80;99.90
19999;DHT22;10160;50.926;4.374;2023-06-22T11:48:43;20.70;99.90
19999;DHT22;10160;50.926;4.374;2023-06-22T11:51:09;20.80;99.90
19999;DHT22;10160;50.926;4.374;2023-06-22T11:53:35;20.80;99.90
19999;DHT22;10160;50.926;4.374;2023-06-22T11:56:01;20.90;99.90
19999;DHT22;10160;50.926;4.374;2023-06-22T11:58:27;20.90;99.90
19999;DHT22;10160;50.926;4.374;2023-06-22T12:00:54;21.00;99.90
19999;DHT22;10160;50.926;4.374;2023-06-22T12:03:19;20.80;99.90
19999;DHT22;10160;50.926;4.374;2023-06-22T12:05:47;20.80;99.90
19999;DHT22;10160;50.926;4.374;2023-06-22T12:08:13;20.70;99.90
19999;DHT22;10160;50.926;4.374;2023-06-22T12:10:39;20.90;99.90
19999;DHT22;10160;50.926;4.374;2023-06-22T12:13:05;21.00;99.90
19999;DHT22;10160;50.926;4.374;2023-06-22T12:15:33;20.90;99.90
19999;DHT22;10160;50.926;4.374;2023-06-22T12:17:58;20.80;99.90
19999;DHT22;10160;50.926;4.374;2023-06-22T12:20:24;21.00;99.90
19999;DHT22;10160;50.926;4.374;2023-06-22T12:22:50;21.00;99.90
19999;DHT22;10160;50.926;4.374;2023-06-22T12:25:17;21.10;99.90
19999;DHT22;10160;50.926;4.374;2023-06-22T12:27:42;21.20;99.90
19999;DHT22;10160;50.926;4.374;2023-06-22T12:30:08;21.10;99.90
19999;DHT22;10160;50.926;4.374;2023-06-22T12:32:34;21.20;99.90
19999;DHT22;10160;50.926;4.374;2023-06-22T12:35:00;21.20;99.90
19999;DHT22;10160;50.926;4.374;2023-06-22T12:37:26;21.10;99.90
19999;DHT22;10160;50.926;4.374;2023-06-22T12:39:53;21.20;99.90
19999;DHT22;10160;50.926;4.374;2023-06-22T12:42:18;21.20;99.90
19999;DHT22;10160;50.926;4.374;2023-06-22T12:44:44;21.30;99.90
19999;DHT22;10160;50.926;4.374;2023-06-22T12:47:10;21.30;99.90
19999;DHT22;10160;50.926;4.374;2023-06-22T12:49:36;21.20;99.90
19999;DHT22;10160;50.926;4.374;2023-06-22T12:52:02;21.20;99.90
19999;DHT22;10160;50.926;4.374;2023-06-22T12:54:28;20.90;99.90
19999;DHT22;10160;50.926;4.374;2023-06-22T12:56:55;20.80;99.90
19999;DHT22;10160;50.926;4.374;2023-06-22T12:59:21;20.80;99.90
19999;DHT22;10160;50.926;4.374;2023-06-22T13:01:46;20.50;99.90
19999;DHT22;10160;50.926;4.374;2023-06-22T13:04:12;20.40;99.90
19999;DHT22;10160;50.926;4.374;2023-06-22T13:06:41;20.30;99.90
19999;DHT22;10160;50.926;4.374;2023-06-22T13:09:07;20.20;99.90
19999;DHT22;10160;50.926;4.374;2023-06-22T13:11:34;20.20;99.90
19999;DHT22;10160;50.926;4.374;2023-06-22T13:14:02;20.30;99.90
19999;DHT22;10160;50.926;4.374;2023-06-22T13:16:28;20.40;99.90
19999;DHT22;10160;50.926;4.374;2023-06-22T13:18:54;20.40;99.90
19999;DHT22;10160;50.926;4.374;2023-06-22T13:21:19;20.30;99.90
19999;DHT22;10160;50.926;4.374;2023-06-22T13:23:45;20.30;99.90
19999;DHT22;10160;50.926;4.374;2023-06-22T13:26:13;20.10;99.90
19999;DHT22;10160;50.926;4.374;2023-06-22T13:28:39;19.90;99.90
19999;DHT22;10160;50.926;4.374;2023-06-22T13:31:04;19.90;99.90
19999;DHT22;10160;50.926;4.374;2023-06-22T13:33:31;19.90;99.90
19999;DHT22;10160;50.926;4.374;2023-06-22T13:35:56;20.00;99.90
19999;DHT22;10160;50.926;4.374;2023-06-22T13:38:22;19.90;99.90
19999;DHT22;10160;50.926;4.374;2023-06-22T13:40:48;19.90;99.90
19999;DHT22;10160;50.926;4.374;2023-06-22T13:43:17;19.90;99.90
19999;DHT22;10160;50.926;4.374;2023-06-22T13:45:42;19.90;99.90
19999;DHT22;10160;50.926;4.374;2023-06-22T13:48:09;19.90;99.90
19999;DHT22;10160;50.926;4.374;2023-06-22T13:50:34;19.90;99.90
19999;DHT22;10160;50.926;4.374;2023-06-22T13:53:00;20.00;99.90
19999;DHT22;10160;50.926;4.374;2023-06-22T13:55:26;20.00;99.90
19999;DHT22;10160;50.926;4.374;2023-06-22T13:57:55;19.90;99.90
19999;DHT22;10160;50.926;4.374;2023-06-22T14:00:23;20.00;99.90
19999;DHT22;10160;50.926;4.374;2023-06-22T14:02:49;20.00;99.90
19999;DHT22;10160;50.926;4.374;2023-06-22T14:05:14;19.90;99.90
19999;DHT22;10160;50.926;4.374;2023-06-22T14:07:42;19.90;99.90
19999;DHT22;10160;50.926;4.374;2023-06-22T14:10:08;19.90;99.90
19999;DHT22;10160;50.926;4.374;2023-06-22T14:12:34;19.80;99.90
19999;DHT22;10160;50.926;4.374;2023-06-22T14:15:00;19.70;99.90
19999;DHT22;10160;50.926;4.374;2023-06-22T14:17:25;19.60;99.90
19999;DHT22;10160;50.926;4.374;2023-06-22T14:19:54;19.70;99.90
19999;DHT22;10160;50.926;4.374;2023-06-22T14:22:21;19.70;99.90
19999;DHT22;10160;50.926;4.374;2023-06-22T14:24:49;19.80;99.90
19999;DHT22;10160;50.926;4.374;2023-06-22T14:27:15;19.80;99.90
19999;DHT22;10160;50.926;4.374;2023-06-22T14:29:44;20.00;99.90
19999;DHT22;10160;50.926;4.374;2023-06-22T14:32:12;19.80;99.90
19999;DHT22;10160;50.926;4.374;2023-06-22T14:34:38;19.80;99.90
19999;DHT22;10160;50.926;4.374;2023-06-22T14:37:07;19.70;99.90
19999;DHT22;10160;50.926;4.374;2023-06-22T14:39:37;19.70;99.90
19999;DHT22;10160;50.926;4.374;2023-06-22T14:42:03;19.80;99.90
19999;DHT22;10160;50.926;4.374;2023-06-22T14:44:29;19.70;99.90
19999;DHT22;10160;50.926;4.374;2023-06-22T14:46:58;19.60;99.90
19999;DHT22;10160;50.926;4.374;2023-06-22T14:49:33;19.70;99.90
19999;DHT22;10160;50.926;4.374;2023-06-22T14:51:58;19.70;99.90
19999;DHT22;10160;50.926;4.374;2023-06-22T14:54:24;19.70;99.90
19999;DHT22;10160;50.926;4.374;2023-06-22T14:56:50;19.70;99.90
19999;DHT22;10160;50.926;4.374;2023-06-22T14:59:16;20.00;99.90
19999;DHT22;10160;50.926;4.374;2023-06-22T15:01:44;20.00;99.90
19999;DHT22;10160;50.926;4.374;2023-06-22T15:04:10;20.00;99.90
19999;DHT22;10160;50.926;4.374;2023-06-22T15:06:35;20.10;99.90
19999;DHT22;10160;50.926;4.374;2023-06-22T15:09:01;20.20;99.90
19999;DHT22;10160;50.926;4.374;2023-06-22T15:11:30;20.10;99.90
19999;DHT22;10160;50.926;4.374;2023-06-22T15:13:58;19.90;99.90
19999;DHT22;10160;50.926;4.374;2023-06-22T15:16:26;20.10;99.90
19999;DHT22;10160;50.926;4.374;2023-06-22T15:18:52;20.10;99.90
19999;DHT22;10160;50.926;4.374;2023-06-22T15:21:18;20.20;99.90
19999;DHT22;10160;50.926;4.374;2023-06-22T15:23:44;20.30;99.90
19999;DHT22;10160;50.926;4.374;2023-06-22T15:26:10;20.30;99.90
19999;DHT22;10160;50.926;4.374;2023-06-22T15:28:35;20.50;99.90
19999;DHT22;10160;50.926;4.374;2023-06-22T15:31:03;20.50;99.90
19999;DHT22;10160;50.926;4.374;2023-06-22T15:33:29;20.60;99.90